KPPA/PPA METAR and TAF weather

Enter ICAO airport designator
Station Type Date Time Source
KPPA METAR 2019/02/20 17:15 UTC NOAA

KPPA 201715Z AUTO 28008G16KT 10SM CLR 04/M07 A2982 RMK AO2 T00411072


Station Type Date Time Source
KPPA Decoded METAR 2019/02/20 17:15 UTC NOAA

Pampa, Perry Lefors Field Airport, TX, United States (KPPA) 35-36-46N 100-59-46W
Feb 20, 2019 - 12:15 PM EST / 2019.02.20 1715 UTC
Wind: from the W (280 degrees) at 9 MPH (8 KT) gusting to 18 MPH (16 KT):0
Visibility: 10 mile(s):0
Sky conditions: clear
Temperature: 39.4 F (4.1 C)
Dew Point: 19.0 F (-7.2 C)
Relative Humidity: 43%
Pressure (altimeter): 29.82 in. Hg (1009 hPa)
ob: KPPA 201715Z AUTO 28008G16KT 10SM CLR 04/M07 A2982 RMK AO2 T00411072
cycle: 17

Station Type Date Time Source
KPPA TAF UTC NOAA

Error!


Example: see airport list